Time;durP1;ratioP1;P1;durP2;ratioP2;P2;SDS_P1;SDS_P2;PMS_P1;PMS_P2;Temp;Humidity;BMP_temperature;BMP_pressure;BME280_temperature;BME280_humidity;BME280_pressure;Samples;Min_cycle;Max_cycle;Signal;HPM_P1;HPM_P2
2022/09/30 00:02:19;;;;;;;5.17;3.30;;;9.80;99.90;;;;;;5054109;28;20225;-60
2022/09/30 00:04:45;;;;;;;4.90;3.30;;;9.90;99.90;;;;;;5053755;28;20297;-57
2022/09/30 00:07:12;;;;;;;4.80;3.30;;;9.90;99.90;;;;;;5053071;28;20213;-57
2022/09/30 00:09:39;;;;;;;6.23;3.70;;;9.90;99.90;;;;;;5053556;28;20237;-57
2022/09/30 00:12:05;;;;;;;4.80;3.10;;;9.90;99.90;;;;;;5053171;28;20701;-59
2022/09/30 00:14:34;;;;;;;5.40;3.80;;;9.80;99.90;;;;;;5053801;28;20206;-59
2022/09/30 00:17:00;;;;;;;6.00;3.40;;;9.70;99.90;;;;;;5052983;28;20206;-58
2022/09/30 00:19:27;;;;;;;5.30;3.67;;;9.60;99.90;;;;;;5053517;28;20727;-59
2022/09/30 00:21:54;;;;;;;5.83;3.23;;;9.50;99.90;;;;;;5053423;28;20217;-58
2022/09/30 00:24:20;;;;;;;4.80;3.80;;;9.40;99.90;;;;;;5053293;28;20581;-59
2022/09/30 00:26:47;;;;;;;7.27;3.40;;;9.30;99.90;;;;;;5052625;28;20213;-59
2022/09/30 00:29:14;;;;;;;6.23;3.50;;;9.20;99.90;;;;;;5053353;28;20239;-58
2022/09/30 00:31:42;;;;;;;6.40;3.57;;;9.20;99.90;;;;;;5053303;28;20229;-58
2022/09/30 00:34:10;;;;;;;5.77;3.13;;;9.10;99.90;;;;;;5053086;28;20674;-58
2022/09/30 00:36:40;;;;;;;3.93;2.97;;;9.00;99.90;;;;;;5052629;28;20205;-58
2022/09/30 00:39:08;;;;;;;5.93;3.50;;;9.00;99.90;;;;;;5052923;28;20213;-58
2022/09/30 00:41:36;;;;;;;5.03;3.63;;;9.00;99.90;;;;;;5053205;28;20222;-58
2022/09/30 00:44:18;;;;;;;4.70;3.23;;;9.00;99.90;;;;;;5053137;28;20205;-59
2022/09/30 00:46:46;;;;;;;8.13;3.63;;;9.00;99.90;;;;;;5051412;28;20596;-58
2022/09/30 00:49:17;;;;;;;4.53;3.23;;;9.10;99.90;;;;;;5052860;28;20206;-58
2022/09/30 00:51:48;;;;;;;5.20;3.10;;;9.10;99.90;;;;;;5053306;28;20226;-59
2022/09/30 00:54:18;;;;;;;5.33;3.23;;;9.10;99.90;;;;;;5053265;28;20209;-58
2022/09/30 00:56:50;;;;;;;4.20;3.23;;;9.00;99.90;;;;;;5052772;28;20214;-58
2022/09/30 00:59:23;;;;;;;3.83;3.00;;;8.90;99.90;;;;;;5052862;28;20209;-59
2022/09/30 01:01:51;;;;;;;7.43;3.53;;;8.90;99.90;;;;;;5053136;28;20221;-58
2022/09/30 01:04:22;;;;;;;5.17;3.53;;;8.90;99.90;;;;;;5052571;28;20207;-58
2022/09/30 01:06:49;;;;;;;7.23;3.20;;;8.80;99.90;;;;;;5051866;28;20213;-58
2022/09/30 01:09:16;;;;;;;9.87;3.67;;;8.80;99.90;;;;;;5052611;28;20213;-58
2022/09/30 01:11:43;;;;;;;3.77;3.37;;;8.70;99.90;;;;;;5052316;28;20241;-55
2022/09/30 01:14:14;;;;;;;5.23;2.80;;;8.70;99.90;;;;;;5052478;28;20205;-55
2022/09/30 01:16:55;;;;;;;4.50;2.90;;;8.70;99.90;;;;;;5051693;28;20213;-54
2022/09/30 01:19:38;;;;;;;4.13;3.20;;;8.60;99.90;;;;;;5052537;28;20241;-54
2022/09/30 01:22:21;;;;;;;4.93;3.10;;;8.60;99.90;;;;;;5052384;28;20221;-54
2022/09/30 01:25:16;;;;;;;4.07;3.30;;;8.50;99.90;;;;;;5052352;28;20233;-54
2022/09/30 01:27:57;;;;;;;4.90;3.20;;;8.40;99.90;;;;;;5051692;28;20696;-55
2022/09/30 01:30:41;;;;;;;5.53;3.33;;;8.30;99.90;;;;;;5052288;28;20209;-55
2022/09/30 01:33:20;;;;;;;3.57;3.07;;;8.20;99.90;;;;;;5051982;28;20241;-55
2022/09/30 01:36:09;;;;;;;5.30;3.43;;;8.10;99.90;;;;;;5052107;28;20228;-57
2022/09/30 01:38:47;;;;;;;5.97;3.33;;;8.10;99.90;;;;;;5052137;28;20205;-56
2022/09/30 01:41:23;;;;;;;7.17;3.70;;;8.00;99.90;;;;;;5052097;28;20236;-54
2022/09/30 01:44:01;;;;;;;4.97;3.60;;;8.10;99.90;;;;;;5051993;28;20212;-55
2022/09/30 01:46:34;;;;;;;5.37;3.50;;;8.20;99.90;;;;;;5051760;28;20205;-55
2022/09/30 01:49:10;;;;;;;5.33;3.30;;;8.20;99.90;;;;;;5052073;28;20206;-54
2022/09/30 01:51:39;;;;;;;5.60;3.50;;;8.30;99.90;;;;;;5051870;28;20225;-54
2022/09/30 01:54:13;;;;;;;4.43;3.30;;;8.20;99.90;;;;;;5051753;28;20625;-54
2022/09/30 01:56:44;;;;;;;4.67;3.50;;;8.20;99.90;;;;;;5051412;28;20209;-57
2022/09/30 01:59:16;;;;;;;4.60;3.30;;;8.10;99.90;;;;;;5051866;28;20626;-54
2022/09/30 02:01:49;;;;;;;6.60;3.50;;;8.10;99.90;;;;;;5051882;28;20225;-55
2022/09/30 02:04:22;;;;;;;5.43;3.47;;;8.10;99.90;;;;;;5051772;28;20201;-54
2022/09/30 02:06:54;;;;;;;4.73;3.53;;;8.00;99.90;;;;;;5051118;28;20232;-55
2022/09/30 02:09:25;;;;;;;6.73;3.87;;;8.00;99.90;;;;;;5051995;28;20239;-55
2022/09/30 02:11:55;;;;;;;5.73;3.60;;;7.90;99.90;;;;;;5051527;28;20229;-55
2022/09/30 02:14:28;;;;;;;3.90;3.50;;;8.00;99.90;;;;;;5051810;28;20245;-57
2022/09/30 02:17:02;;;;;;;6.27;3.50;;;8.10;99.90;;;;;;5051038;28;20209;-57
2022/09/30 02:19:35;;;;;;;5.17;3.83;;;8.20;99.90;;;;;;5051837;28;20241;-56
2022/09/30 02:22:07;;;;;;;4.57;3.50;;;8.30;99.90;;;;;;5052787;28;20229;-54
2022/09/30 02:24:36;;;;;;;5.77;3.57;;;8.40;99.90;;;;;;5056114;28;20247;-55
2022/09/30 02:27:07;;;;;;;4.27;3.77;;;8.50;99.90;;;;;;5055891;28;20633;-54
2022/09/30 02:29:39;;;;;;;7.47;4.37;;;8.60;99.90;;;;;;5055929;28;20206;-54
2022/09/30 02:32:12;;;;;;;8.20;4.27;;;8.70;99.90;;;;;;5056051;28;20242;-54
2022/09/30 02:34:44;;;;;;;6.83;4.63;;;8.70;99.90;;;;;;5056108;28;20247;-55
2022/09/30 02:37:14;;;;;;;8.00;4.53;;;8.70;99.90;;;;;;5055985;28;20218;-55
2022/09/30 02:39:47;;;;;;;5.90;4.57;;;8.80;99.90;;;;;;5055717;28;20210;-57
2022/09/30 02:42:19;;;;;;;5.17;4.13;;;8.70;99.90;;;;;;5055242;28;20233;-55
2022/09/30 02:44:46;;;;;;;6.57;4.13;;;8.70;99.90;;;;;;5055750;28;20205;-54
2022/09/30 02:47:20;;;;;;;5.40;4.30;;;8.70;99.90;;;;;;5054813;28;20213;-55
2022/09/30 02:49:49;;;;;;;6.20;4.10;;;8.70;99.90;;;;;;5055253;28;20216;-55
2022/09/30 02:52:25;;;;;;;6.97;3.90;;;8.60;99.90;;;;;;5055027;28;20225;-55
2022/09/30 02:55:03;;;;;;;5.87;4.10;;;8.50;99.90;;;;;;5055087;28;20205;-55
2022/09/30 02:57:36;;;;;;;8.10;5.30;;;8.50;99.90;;;;;;5054596;28;20588;-55
2022/09/30 03:00:05;;;;;;;9.10;6.23;;;8.60;99.90;;;;;;5054963;28;20212;-55
2022/09/30 03:02:33;;;;;;;4.90;4.17;;;8.60;99.90;;;;;;5054973;28;20253;-55
2022/09/30 03:05:00;;;;;;;5.33;4.10;;;8.60;99.90;;;;;;5054937;28;20340;-55
2022/09/30 03:07:27;;;;;;;7.93;3.93;;;8.50;99.90;;;;;;5054387;28;20213;-54
2022/09/30 03:09:56;;;;;;;5.13;3.93;;;8.40;99.90;;;;;;5054735;28;20209;-56
2022/09/30 03:12:39;;;;;;;6.03;4.60;;;8.30;99.90;;;;;;5054565;28;20265;-55
2022/09/30 03:15:31;;;;;;;6.00;4.90;;;8.30;99.90;;;;;;5055001;28;20212;-54
2022/09/30 03:18:11;;;;;;;7.37;4.83;;;8.30;99.90;;;;;;5053765;28;20217;-54
2022/09/30 03:20:50;;;;;;;4.63;3.93;;;8.30;99.90;;;;;;5056396;28;20238;-58
2022/09/30 03:23:39;;;;;;;6.00;4.60;;;8.30;99.90;;;;;;5057295;28;20201;-56
2022/09/30 03:26:18;;;;;;;5.07;4.10;;;8.30;99.90;;;;;;5056273;28;20212;-58
2022/09/30 03:28:52;;;;;;;6.23;4.10;;;8.40;99.90;;;;;;5054847;28;20206;-56
2022/09/30 03:31:29;;;;;;;6.73;4.27;;;8.40;99.90;;;;;;5054431;28;20660;-55
2022/09/30 03:34:08;;;;;;;6.33;4.03;;;8.40;99.90;;;;;;5054073;28;20225;-55
2022/09/30 03:36:39;;;;;;;4.60;4.03;;;8.30;99.90;;;;;;5053888;28;20205;-54
2022/09/30 03:39:16;;;;;;;4.23;3.80;;;8.30;99.90;;;;;;5054246;28;20733;-54
2022/09/30 03:41:48;;;;;;;5.37;3.90;;;8.30;99.90;;;;;;5054234;28;20229;-55
2022/09/30 03:44:21;;;;;;;4.87;4.00;;;8.20;99.90;;;;;;5054113;28;20630;-55
2022/09/30 03:46:51;;;;;;;5.07;4.33;;;8.30;99.90;;;;;;5053313;28;20209;-54
2022/09/30 03:49:23;;;;;;;8.57;4.90;;;8.30;99.90;;;;;;5054304;28;20233;-54
2022/09/30 03:51:50;;;;;;;9.43;5.13;;;8.30;99.90;;;;;;5054024;28;20584;-55
2022/09/30 03:54:16;;;;;;;6.10;4.77;;;8.30;99.90;;;;;;5054117;28;20216;-56
2022/09/30 03:56:43;;;;;;;6.57;4.63;;;8.30;99.90;;;;;;5053324;28;20205;-55
2022/09/30 03:59:21;;;;;;;6.77;4.50;;;8.30;99.90;;;;;;5053615;28;20696;-54
2022/09/30 04:01:48;;;;;;;5.27;4.33;;;8.30;99.90;;;;;;5053911;28;20271;-55
2022/09/30 04:04:15;;;;;;;6.10;4.53;;;8.30;99.90;;;;;;5053966;28;20204;-57
2022/09/30 04:06:43;;;;;;;8.60;4.37;;;8.30;99.90;;;;;;5053200;28;20590;-55
2022/09/30 04:09:10;;;;;;;5.77;4.50;;;8.30;99.90;;;;;;5053723;28;20212;-55
2022/09/30 04:11:36;;;;;;;4.50;4.10;;;8.20;99.90;;;;;;5053260;28;20233;-55
2022/09/30 04:14:04;;;;;;;5.60;4.43;;;8.10;99.90;;;;;;5053619;28;20602;-56
2022/09/30 04:16:31;;;;;;;5.40;4.87;;;7.90;99.90;;;;;;5053099;28;20452;-55
2022/09/30 04:18:59;;;;;;;5.77;4.23;;;7.70;99.90;;;;;;5053580;28;20212;-54
2022/09/30 04:21:27;;;;;;;5.43;4.70;;;7.60;99.90;;;;;;5053444;28;20230;-56
2022/09/30 04:23:55;;;;;;;4.63;4.13;;;7.60;99.90;;;;;;5053462;28;20617;-55
2022/09/30 04:26:22;;;;;;;5.20;4.70;;;7.60;99.90;;;;;;5052710;28;20256;-55
2022/09/30 04:28:51;;;;;;;5.50;4.00;;;7.60;99.90;;;;;;5053666;28;20205;-55
2022/09/30 04:31:19;;;;;;;5.23;4.40;;;7.50;99.90;;;;;;5053535;28;20257;-56
2022/09/30 04:33:46;;;;;;;7.83;5.17;;;7.50;99.90;;;;;;5053154;28;20279;-56
2022/09/30 04:36:12;;;;;;;5.33;4.53;;;7.50;99.90;;;;;;5053287;28;20232;-56
2022/09/30 04:38:39;;;;;;;5.43;4.67;;;7.40;99.90;;;;;;5052460;28;20210;-55
2022/09/30 04:41:08;;;;;;;6.17;4.53;;;7.40;99.90;;;;;;5052963;28;20608;-54
2022/09/30 04:43:34;;;;;;;6.27;5.20;;;7.30;99.90;;;;;;5053236;28;20206;-55
2022/09/30 04:46:01;;;;;;;6.37;4.40;;;7.30;99.90;;;;;;5052087;28;20242;-55
2022/09/30 04:48:30;;;;;;;7.30;4.57;;;7.20;99.90;;;;;;5052354;28;20205;-57
2022/09/30 04:50:58;;;;;;;8.83;4.73;;;7.20;99.90;;;;;;5052861;28;20228;-55
2022/09/30 04:53:25;;;;;;;6.00;4.70;;;7.20;99.90;;;;;;5052814;28;20225;-56
2022/09/30 04:55:51;;;;;;;8.17;4.70;;;7.10;99.90;;;;;;5053132;28;20259;-55
2022/09/30 04:58:19;;;;;;;6.10;4.60;;;7.10;99.90;;;;;;5052256;28;20701;-55
2022/09/30 05:00:46;;;;;;;5.67;4.67;;;7.10;99.90;;;;;;5052932;28;20205;-56
2022/09/30 05:03:13;;;;;;;5.50;4.87;;;7.10;99.90;;;;;;5052770;28;20202;-55
2022/09/30 05:05:44;;;;;;;7.57;5.53;;;7.00;99.90;;;;;;5052496;28;20209;-54
2022/09/30 05:08:10;;;;;;;6.97;5.30;;;7.00;99.90;;;;;;5051780;28;20209;-56
2022/09/30 05:10:39;;;;;;;8.50;5.30;;;7.00;99.90;;;;;;5052675;28;20217;-55
2022/09/30 05:13:05;;;;;;;6.63;4.53;;;7.00;99.90;;;;;;5052328;28;20230;-54
2022/09/30 05:15:34;;;;;;;7.57;4.80;;;7.00;99.90;;;;;;5052392;28;20232;-55
2022/09/30 05:18:01;;;;;;;6.00;5.10;;;7.00;99.90;;;;;;5051537;28;20221;-55
2022/09/30 05:20:28;;;;;;;8.50;5.47;;;7.00;99.90;;;;;;5052170;28;20690;-55
2022/09/30 05:22:56;;;;;;;7.87;5.73;;;7.00;99.90;;;;;;5052261;28;20603;-55
2022/09/30 05:25:23;;;;;;;6.03;5.13;;;7.10;99.90;;;;;;5052443;28;20652;-55
2022/09/30 05:27:50;;;;;;;6.70;5.17;;;7.00;99.90;;;;;;5051832;28;20210;-55
2022/09/30 05:30:17;;;;;;;7.37;5.40;;;7.10;99.90;;;;;;5052248;28;20267;-54
2022/09/30 05:32:45;;;;;;;6.43;5.03;;;7.00;99.90;;;;;;5051993;28;20232;-54
2022/09/30 05:35:12;;;;;;;13.17;5.70;;;7.00;99.90;;;;;;5052285;28;20233;-54
2022/09/30 05:37:38;;;;;;;7.53;5.53;;;7.00;99.90;;;;;;5051714;28;20201;-54
2022/09/30 05:40:07;;;;;;;7.27;5.87;;;7.10;99.90;;;;;;5052321;28;20209;-57
2022/09/30 05:42:34;;;;;;;9.70;6.43;;;7.10;99.90;;;;;;5051861;28;20234;-55
2022/09/30 05:45:01;;;;;;;8.03;5.73;;;7.20;99.90;;;;;;5052124;28;20259;-54
2022/09/30 05:47:28;;;;;;;8.73;5.63;;;7.20;99.90;;;;;;5050887;28;20206;-56
2022/09/30 05:49:56;;;;;;;8.27;5.57;;;7.20;99.90;;;;;;5052212;28;20209;-55
2022/09/30 05:52:23;;;;;;;6.30;5.20;;;7.10;99.90;;;;;;5052028;28;20717;-55
2022/09/30 05:54:50;;;;;;;5.73;5.07;;;7.00;99.90;;;;;;5052209;28;20234;-55
2022/09/30 05:57:17;;;;;;;6.80;5.30;;;7.00;99.90;;;;;;5051041;28;20237;-55
2022/09/30 05:59:44;;;;;;;6.30;4.87;;;7.00;99.90;;;;;;5051814;28;20240;-55
2022/09/30 06:02:10;;;;;;;12.43;6.53;;;7.10;99.90;;;;;;5051638;28;20221;-55
2022/09/30 06:04:37;;;;;;;6.40;5.70;;;7.10;99.90;;;;;;5051939;28;20206;-54
2022/09/30 06:07:05;;;;;;;7.53;5.97;;;7.30;99.90;;;;;;5051336;28;20205;-53
2022/09/30 06:09:32;;;;;;;7.17;5.70;;;7.50;99.90;;;;;;5051929;28;20222;-54
2022/09/30 06:11:59;;;;;;;7.17;5.60;;;7.60;99.90;;;;;;5051525;28;20233;-54
2022/09/30 06:14:27;;;;;;;6.57;5.07;;;7.70;99.90;;;;;;5051816;28;20229;-54
2022/09/30 06:16:54;;;;;;;5.33;4.83;;;7.80;99.90;;;;;;5051231;28;20210;-54
2022/09/30 06:19:21;;;;;;;7.10;4.97;;;7.70;99.90;;;;;;5051961;28;20213;-54
2022/09/30 06:21:47;;;;;;;5.33;4.83;;;8.10;99.90;;;;;;5051825;28;20269;-54
2022/09/30 06:24:15;;;;;;;6.43;4.93;;;9.10;99.90;;;;;;5051917;28;20197;-53
2022/09/30 06:26:42;;;;;;;5.23;4.10;;;10.30;99.90;;;;;;5050929;28;20669;-53
2022/09/30 06:29:09;;;;;;;4.90;4.17;;;11.60;99.90;;;;;;5051406;28;20288;-57
2022/09/30 06:31:36;;;;;;;5.87;4.00;;;12.60;99.90;;;;;;5051604;28;20228;-53
2022/09/30 06:34:03;;;;;;;4.07;3.67;;;13.50;99.90;;;;;;5051623;28;20236;-54
2022/09/30 06:36:32;;;;;;;4.27;3.87;;;14.30;99.90;;;;;;5051327;28;20216;-57
2022/09/30 06:38:59;;;;;;;5.27;4.30;;;15.10;99.90;;;;;;5051560;28;20644;-54
2022/09/30 06:41:28;;;;;;;4.20;3.80;;;15.70;99.90;;;;;;5051584;28;20221;-53
2022/09/30 06:43:56;;;;;;;4.20;3.77;;;16.20;99.90;;;;;;5051326;28;20558;-55
2022/09/30 06:46:23;;;;;;;5.00;3.90;;;16.80;99.90;;;;;;5051551;28;20599;-54
2022/09/30 06:48:51;;;;;;;4.13;3.73;;;17.20;99.90;;;;;;5050879;28;20660;-54
2022/09/30 06:51:18;;;;;;;4.27;3.77;;;17.20;99.90;;;;;;5051330;28;20257;-54
2022/09/30 06:53:45;;;;;;;4.13;3.70;;;17.00;99.90;;;;;;5051384;28;20774;-56
2022/09/30 06:56:12;;;;;;;5.22;3.40;;;17.00;99.90;;;;;;5051320;28;20213;-54
2022/09/30 06:58:41;;;;;;;4.20;3.60;;;17.30;99.90;;;;;;5050871;28;20205;-53
2022/09/30 07:01:11;;;;;;;3.88;3.47;;;17.70;99.90;;;;;;5051602;28;20225;-54
2022/09/30 07:03:38;;;;;;;4.20;3.70;;;18.00;99.90;;;;;;5051859;28;20216;-54
2022/09/30 07:06:06;;;;;;;4.18;3.70;;;18.00;99.90;;;;;;5051341;28;20201;-53
2022/09/30 07:08:34;;;;;;;5.22;3.67;;;18.10;99.90;;;;;;5051010;28;20209;-53
2022/09/30 07:11:03;;;;;;;6.40;4.45;;;18.00;99.90;;;;;;5054712;28;20213;-53
2022/09/30 07:13:29;;;;;;;4.90;4.40;;;17.80;99.90;;;;;;5055382;28;20283;-53
2022/09/30 07:15:57;;;;;;;4.85;4.32;;;17.50;99.90;;;;;;5054595;28;20208;-53
2022/09/30 07:18:27;;;;;;;4.13;3.72;;;17.10;99.90;;;;;;5054284;28;20206;-52
2022/09/30 07:20:55;;;;;;;4.53;3.93;;;16.70;99.90;;;;;;5054932;28;20275;-55
2022/09/30 07:23:24;;;;;;;6.27;4.13;;;16.40;99.90;;;;;;5054847;28;20205;-55
2022/09/30 07:25:54;;;;;;;6.27;4.50;;;16.10;99.90;;;;;;5055133;28;20209;-53
2022/09/30 07:28:21;;;;;;;4.57;4.13;;;15.90;99.90;;;;;;5054432;28;20297;-52
2022/09/30 07:30:47;;;;;;;5.23;4.73;;;15.80;99.90;;;;;;5054539;28;20238;-53
2022/09/30 07:33:16;;;;;;;5.57;4.87;;;15.70;99.90;;;;;;5054466;28;20210;-53
2022/09/30 07:35:51;;;;;;;5.20;4.70;;;15.70;99.90;;;;;;5054330;28;20213;-53
2022/09/30 07:38:18;;;;;;;5.03;4.53;;;15.80;99.90;;;;;;5054362;28;20258;-54
2022/09/30 07:40:56;;;;;;;4.77;4.37;;;15.80;99.90;;;;;;5054690;28;20210;-54
2022/09/30 07:43:24;;;;;;;6.07;4.50;;;15.60;99.90;;;;;;5054840;28;20197;-53
2022/09/30 07:45:54;;;;;;;5.10;4.50;;;15.30;99.90;;;;;;5054234;28;20684;-55
2022/09/30 07:51:08;;;;;;;4.90;4.40;;;14.80;99.90;;;;;;5054183;28;20233;-55
2022/09/30 07:53:35;;;;;;;4.77;4.27;;;14.60;99.90;;;;;;5054195;28;20222;-54
2022/09/30 07:56:03;;;;;;;5.93;4.53;;;14.60;99.90;;;;;;5054245;28;20208;-57
2022/09/30 07:58:30;;;;;;;8.23;5.00;;;14.50;99.90;;;;;;5053440;28;20656;-54
2022/09/30 08:00:57;;;;;;;5.83;4.20;;;14.40;99.90;;;;;;5053656;28;20218;-55
2022/09/30 08:03:25;;;;;;;4.83;4.40;;;14.40;99.90;;;;;;5054237;28;20206;-54
2022/09/30 08:05:52;;;;;;;5.03;4.37;;;14.50;99.90;;;;;;5054236;28;20205;-54
2022/09/30 08:08:19;;;;;;;5.73;4.80;;;14.60;99.90;;;;;;5053335;28;20701;-55
2022/09/30 08:10:46;;;;;;;6.40;4.43;;;14.70;99.90;;;;;;5053974;28;20201;-54
2022/09/30 08:13:13;;;;;;;5.90;4.50;;;14.70;99.90;;;;;;5053630;28;20221;-54
2022/09/30 08:15:40;;;;;;;5.03;4.50;;;14.70;99.90;;;;;;5053692;28;20646;-55
2022/09/30 08:18:07;;;;;;;4.83;4.10;;;14.60;99.90;;;;;;5053344;28;20212;-54
2022/09/30 08:20:35;;;;;;;5.73;4.73;;;14.50;99.90;;;;;;5053403;28;20239;-54
2022/09/30 08:23:01;;;;;;;4.50;3.80;;;14.40;99.90;;;;;;5053636;28;20232;-55
2022/09/30 08:25:28;;;;;;;5.80;4.10;;;14.30;99.90;;;;;;5053721;28;20206;-55
2022/09/30 08:27:55;;;;;;;4.37;3.97;;;14.40;99.90;;;;;;5052948;28;20669;-55
2022/09/30 08:30:21;;;;;;;5.57;4.10;;;14.40;99.90;;;;;;5053659;28;20209;-56
2022/09/30 08:32:48;;;;;;;4.97;4.00;;;14.50;99.90;;;;;;5053642;28;20233;-55
2022/09/30 08:35:15;;;;;;;6.83;4.27;;;14.60;99.90;;;;;;5053314;28;20229;-55
2022/09/30 08:37:43;;;;;;;5.83;4.10;;;14.60;99.90;;;;;;5052932;28;20210;-55
2022/09/30 08:40:19;;;;;;;4.30;3.47;;;14.60;99.90;;;;;;5053416;28;20263;-54
2022/09/30 08:43:00;;;;;;;5.40;3.87;;;14.70;99.90;;;;;;5053634;28;20224;-54
2022/09/30 08:45:36;;;;;;;4.70;3.80;;;14.70;99.90;;;;;;5053454;28;20204;-54
2022/09/30 08:48:14;;;;;;;4.37;3.90;;;14.80;99.90;;;;;;5052505;28;20209;-54
2022/09/30 08:50:53;;;;;;;5.03;3.40;;;14.90;99.90;;;;;;5053082;28;20205;-55
2022/09/30 08:53:26;;;;;;;4.13;3.50;;;14.90;99.90;;;;;;5053235;28;20209;-55
2022/09/30 08:55:55;;;;;;;3.83;3.13;;;15.00;99.90;;;;;;5052995;28;20201;-55
2022/09/30 08:58:27;;;;;;;3.77;3.43;;;15.00;99.90;;;;;;5052275;28;20209;-55
2022/09/30 09:00:57;;;;;;;3.23;2.93;;;15.10;99.90;;;;;;5052761;28;20213;-56
2022/09/30 09:03:29;;;;;;;3.93;3.07;;;15.20;99.90;;;;;;5052741;28;20718;-54
2022/09/30 09:06:08;;;;;;;3.47;2.93;;;15.10;99.90;;;;;;5052876;28;20292;-54
2022/09/30 09:09:00;;;;;;;3.00;2.70;;;15.20;99.90;;;;;;5052338;28;20205;-53
2022/09/30 09:11:43;;;;;;;4.80;2.80;;;15.30;99.90;;;;;;5035697;28;20240;-54
2022/09/30 09:14:21;;;;;;;5.27;3.57;;;15.30;99.90;;;;;;5052714;28;20225;-53
2022/09/30 09:17:02;;;;;;;4.23;3.40;;;15.30;99.90;;;;;;5051981;28;20206;-54
2022/09/30 09:19:37;;;;;;;5.93;3.50;;;15.30;99.90;;;;;;5052522;28;20201;-55
2022/09/30 09:22:04;;;;;;;4.97;3.70;;;15.50;99.90;;;;;;5052317;28;20721;-54
2022/09/30 09:24:37;;;;;;;4.00;3.60;;;15.50;99.90;;;;;;5052796;28;20216;-54
2022/09/30 09:27:17;;;;;;;4.40;3.73;;;15.60;99.90;;;;;;5051724;28;20236;-55
2022/09/30 09:29:57;;;;;;;4.87;3.53;;;15.60;99.90;;;;;;5052883;28;20223;-54
2022/09/30 09:32:26;;;;;;;4.97;3.58;;;15.70;99.90;;;;;;5045087;28;20876;-55
2022/09/30 09:34:59;;;;;;;5.17;3.43;;;15.80;99.90;;;;;;5051010;28;20229;-56
2022/09/30 09:40:28;;;;;;;6.27;4.00;;;16.10;99.90;;;;;;5031153;28;20209;-57
2022/09/30 09:43:12;;;;;;;3.47;3.17;;;16.40;99.90;;;;;;5030578;28;20222;-57
2022/09/30 09:45:46;;;;;;;3.20;2.63;;;16.60;99.90;;;;;;5031116;28;20202;-58
2022/09/30 09:48:15;;;;;;;3.57;3.27;;;16.80;99.90;;;;;;5030276;28;20210;-61
2022/09/30 09:50:50;;;;;;;4.28;2.70;;;17.10;99.90;;;;;;5031804;28;20576;-57
2022/09/30 09:53:37;;;;;;;4.45;2.80;;;17.20;99.90;;;;;;5031875;28;20602;-58
2022/09/30 09:56:17;;;;;;;3.85;2.53;;;17.30;99.90;;;;;;5031837;28;20245;-57
2022/09/30 09:59:06;;;;;;;10.75;3.17;;;17.50;99.90;;;;;;5031472;28;20210;-59
2022/09/30 10:01:33;;;;;;;5.20;2.67;;;17.60;99.90;;;;;;5031960;28;20231;-58
2022/09/30 10:04:20;;;;;;;7.15;2.67;;;17.70;99.90;;;;;;5031674;28;20202;-58
2022/09/30 10:06:52;;;;;;;2.53;2.22;;;17.90;99.90;;;;;;5032009;28;20202;-58
2022/09/30 10:09:24;;;;;;;6.20;2.38;;;18.00;99.90;;;;;;5031682;28;20304;-59
2022/09/30 10:12:15;;;;;;;2.35;1.90;;;18.10;99.90;;;;;;5031537;28;20230;-58
2022/09/30 10:14:49;;;;;;;3.85;2.08;;;18.20;99.90;;;;;;5031704;28;20226;-57
2022/09/30 10:17:19;;;;;;;4.05;2.17;;;18.30;99.90;;;;;;5031632;28;20289;-58
2022/09/30 10:19:50;;;;;;;3.22;2.40;;;18.50;99.90;;;;;;5032153;28;20238;-57
2022/09/30 10:22:26;;;;;;;3.95;2.78;;;18.50;99.90;;;;;;5031982;28;20233;-57
2022/09/30 10:25:10;;;;;;;3.75;2.40;;;18.60;99.90;;;;;;5031985;28;20205;-57
2022/09/30 10:27:48;;;;;;;4.30;2.30;;;18.50;99.90;;;;;;5031093;28;20293;-58
2022/09/30 10:30:31;;;;;;;2.58;1.92;;;18.40;99.90;;;;;;5031581;28;20271;-58
2022/09/30 10:32:58;;;;;;;3.65;2.00;;;18.20;99.90;;;;;;5031311;28;20233;-57
2022/09/30 10:35:26;;;;;;;3.67;2.00;;;18.20;99.90;;;;;;5031843;28;20229;-57
2022/09/30 10:37:54;;;;;;;4.30;2.10;;;18.30;99.90;;;;;;5031303;28;20309;-55
2022/09/30 10:40:26;;;;;;;4.20;2.00;;;18.30;99.90;;;;;;5031606;28;20209;-57
2022/09/30 10:42:55;;;;;;;2.45;1.63;;;18.10;99.90;;;;;;5031585;28;20265;-57
2022/09/30 10:45:24;;;;;;;2.33;1.45;;;17.90;99.90;;;;;;5034525;28;20242;-55
2022/09/30 10:47:53;;;;;;;4.80;1.80;;;17.90;99.90;;;;;;5035068;28;20210;-58
2022/09/30 10:50:23;;;;;;;1.92;1.50;;;18.00;99.90;;;;;;5035318;28;20207;-56
2022/09/30 10:52:55;;;;;;;3.25;2.30;;;17.90;99.90;;;;;;5035081;28;20737;-56
2022/09/30 10:55:31;;;;;;;2.30;1.48;;;18.00;99.90;;;;;;5035314;28;20229;-56
2022/09/30 10:58:22;;;;;;;2.50;1.55;;;18.10;99.90;;;;;;5034774;28;20213;-57
2022/09/30 11:00:53;;;;;;;1.95;1.30;;;18.10;99.90;;;;;;5035110;28;20207;-57
2022/09/30 11:03:25;;;;;;;2.45;1.50;;;18.20;99.90;;;;;;5035246;28;20228;-57
2022/09/30 11:05:52;;;;;;;3.55;1.73;;;18.30;99.90;;;;;;5035155;28;20202;-57
2022/09/30 11:08:24;;;;;;;2.92;1.45;;;18.40;99.90;;;;;;5035546;28;20217;-58
2022/09/30 11:10:58;;;;;;;2.08;1.20;;;18.40;99.90;;;;;;5035305;28;20221;-58
2022/09/30 11:13:34;;;;;;;1.80;1.30;;;18.40;99.90;;;;;;5035076;28;20214;-56
2022/09/30 11:16:09;;;;;;;2.90;1.45;;;18.30;99.90;;;;;;5034738;28;20698;-56
2022/09/30 11:18:42;;;;;;;2.38;1.20;;;18.10;99.90;;;;;;5034335;28;20210;-58
2022/09/30 11:21:16;;;;;;;3.70;1.75;;;17.90;99.90;;;;;;5035065;28;20698;-58
2022/09/30 11:23:46;;;;;;;1.85;1.17;;;17.80;99.90;;;;;;5034932;28;20252;-57
2022/09/30 11:26:24;;;;;;;3.40;1.25;;;17.80;99.40;;;;;;5034997;28;20202;-57
2022/09/30 11:29:06;;;;;;;2.30;1.55;;;17.60;99.80;;;;;;5033984;28;20206;-56
2022/09/30 11:31:38;;;;;;;2.05;1.30;;;17.80;99.90;;;;;;5034313;28;20229;-57
2022/09/30 11:34:28;;;;;;;3.38;1.60;;;17.90;99.90;;;;;;5034974;28;20214;-57
2022/09/30 11:37:01;;;;;;;1.75;1.25;;;18.10;99.90;;;;;;5037046;28;20269;-57
2022/09/30 11:39:46;;;;;;;2.95;1.23;;;18.20;99.90;;;;;;5037149;28;20214;-58
2022/09/30 11:42:19;;;;;;;2.88;1.20;;;18.40;99.20;;;;;;5037278;28;20237;-59
2022/09/30 11:44:55;;;;;;;3.00;1.50;;;18.50;99.10;;;;;;5034572;28;20628;-58
2022/09/30 11:47:41;;;;;;;3.55;2.33;;;18.70;98.30;;;;;;5033813;28;20777;-58
2022/09/30 11:50:37;;;;;;;2.22;1.33;;;18.80;97.50;;;;;;5034036;28;20206;-57
2022/09/30 11:53:17;;;;;;;2.47;1.63;;;18.80;98.50;;;;;;5017656;28;20226;-55
2022/09/30 11:55:57;;;;;;;3.28;1.52;;;19.00;98.00;;;;;;5033258;28;20248;-56
2022/09/30 11:58:28;;;;;;;2.47;1.20;;;19.20;97.20;;;;;;5033175;28;20720;-57
2022/09/30 12:01:01;;;;;;;2.70;1.35;;;19.40;96.80;;;;;;5034159;28;20206;-58
2022/09/30 12:03:34;;;;;;;1.38;1.10;;;19.60;96.50;;;;;;5033812;28;20240;-56
2022/09/30 12:06:07;;;;;;;2.22;1.23;;;19.80;96.30;;;;;;5033797;28;20202;-57
2022/09/30 12:08:37;;;;;;;1.92;0.90;;;19.80;95.80;;;;;;5033319;28;20206;-56
2022/09/30 12:11:08;;;;;;;1.52;1.10;;;20.00;95.50;;;;;;5033505;28;20674;-57
2022/09/30 12:13:39;;;;;;;1.30;0.98;;;20.00;95.30;;;;;;5033969;28;20210;-58
2022/09/30 12:16:14;;;;;;;1.60;1.00;;;20.10;94.30;;;;;;5033512;28;20237;-58
2022/09/30 12:18:45;;;;;;;1.85;1.30;;;20.10;93.10;;;;;;5033633;28;20205;-57
2022/09/30 12:21:19;;;;;;;1.65;0.82;;;20.10;93.30;;;;;;5033551;28;20233;-58
2022/09/30 12:23:51;;;;;;;2.47;0.90;;;20.20;90.40;;;;;;5033869;28;20216;-57
2022/09/30 12:26:18;;;;;;;1.23;0.70;;;20.30;88.60;;;;;;5033747;28;20202;-61
2022/09/30 12:32:09;;;;;;;2.08;1.20;;;20.60;85.10;;;;;;5033430;28;20340;-56
2022/09/30 12:34:51;;;;;;;1.85;1.17;;;20.60;84.80;;;;;;5033061;28;20587;-60
2022/09/30 12:37:37;;;;;;;1.85;0.85;;;20.60;84.30;;;;;;5032681;28;20202;-59
2022/09/30 12:40:40;;;;;;;1.63;0.80;;;20.50;84.00;;;;;;5033276;28;20213;-58
2022/09/30 12:43:26;;;;;;;1.35;0.77;;;20.50;83.80;;;;;;5033135;28;20229;-57
2022/09/30 12:46:17;;;;;;;1.45;0.77;;;20.30;82.80;;;;;;5033675;28;20260;-58
2022/09/30 12:48:48;;;;;;;0.80;0.50;;;20.10;81.90;;;;;;5032865;28;20210;-57
2022/09/30 12:51:24;;;;;;;1.67;0.88;;;20.00;81.90;;;;;;5033352;28;20264;-56
2022/09/30 12:53:56;;;;;;;2.80;2.47;;;20.00;83.30;;;;;;5033138;28;20305;-58
2022/09/30 12:56:27;;;;;;;1.27;0.73;;;20.00;83.00;;;;;;5033120;28;20760;-59
2022/09/30 12:58:56;;;;;;;0.98;0.88;;;20.10;83.50;;;;;;5032412;28;20289;-57
2022/09/30 13:01:25;;;;;;;1.40;0.73;;;20.20;82.50;;;;;;5033051;28;20222;-57
2022/09/30 13:04:15;;;;;;;2.38;0.88;;;20.20;83.70;;;;;;5033034;28;20742;-57
2022/09/30 13:07:11;;;;;;;2.92;1.00;;;20.30;86.00;;;;;;5032102;28;20202;-60
2022/09/30 13:09:57;;;;;;;2.65;1.23;;;20.40;85.50;;;;;;5032587;28;20689;-57
2022/09/30 13:12:26;;;;;;;3.50;0.68;;;20.30;84.80;;;;;;5033145;28;20229;-57
2022/09/30 13:15:38;;;;;;;1.63;0.93;;;20.50;84.20;;;;;;5032408;28;20243;-58
2022/09/30 13:18:39;;;;;;;4.43;1.10;;;20.50;83.70;;;;;;4970982;28;20204;-57
2022/09/30 13:21:24;;;;;;;1.95;1.15;;;20.50;83.60;;;;;;5032442;28;20215;-56
2022/09/30 13:23:52;;;;;;;2.40;1.00;;;20.30;84.90;;;;;;5032329;28;20678;-57
2022/09/30 13:26:41;;;;;;;1.50;0.80;;;20.20;85.30;;;;;;5032436;28;20674;-59
2022/09/30 13:29:34;;;;;;;2.85;1.10;;;20.20;84.40;;;;;;5025726;28;20213;-58